Latest Weather Observations for Thargomindah

IDQ60801

Issued at 10:32 am EST Monday 16 September 2019 (issued every 10 minutes, with the page automatically refreshed every 10 minutes)

About weather observations | Map of weather stations | Latest weather observations for QLD | Other Formats
Station Details ID: 045025 Name: THARGOMINDAH AIRPORT Lat: -27.99 Lon: 143.81 Height: 130.89 m
Data from the previous 72 hours. | See also: Recent months at Thargomindah
Date/Time
EST
Temp
°C
App
Temp
°C
Dew
Point
°C
Rel
Hum
%
Delta-T
°C
Wind Press
QNH
hPa
Press
MSL
hPa
Rain since
9am
mm
Dir  Spd
km/h
Gust
km/h
Spd
kts
Gust
kts
16/10:30am 28.5 23.1 -8.9 8 15.1 N 13 19 7 10 1018.5 1018.1 0.0
16/10:00am 26.9 21.5 -8.6 9 14.2 N 13 19 7 10 1018.7 1018.3 0.0
16/09:30am 25.2 19.3 -9.9 9 13.5 NNE 15 17 8 9 1018.8 1018.4 0.0
16/09:00am 23.6 18.1 -9.8 10 12.7 NNE 13 19 7 10 1019.0 1018.6 0.0
16/08:30am 21.4 16.7 -9.1 12 11.5 NNE 9 13 5 7 1019.2 1018.8 0.0
16/08:00am 18.6 14.3 -9.4 14 10.1 NE 7 9 4 5 1019.1 1018.7 0.0
16/07:30am 15.9 11.8 -7.0 20 8.4 ENE 7 7 4 4 1018.8 1018.4 0.0
16/07:00am 12.5 8.0 -7.0 25 6.9 ENE 9 9 5 5 1018.6 1018.2 0.0
16/06:30am 10.1 5.7 -6.2 31 5.7 ENE 9 9 5 5 1018.5 1018.1 0.0
16/06:00am 10.8 6.7 -7.0 28 6.2 E 7 9 4 5 1018.5 1018.1 0.0
16/05:30am 11.0 8.3 -5.5 31 5.9 CALM 0 0 0 0 1018.4 1018.0 0.0
16/05:00am 11.7 8.9 -7.1 26 6.6 CALM 0 0 0 0 1018.2 1017.8 0.0
16/04:30am 12.7 10.0 -6.3 26 6.9 CALM 0 0 0 0 1018.1 1017.7 0.0
16/04:00am 13.2 10.5 -6.4 25 7.1 CALM 0 0 0 0 1018.0 1017.6 0.0
16/03:30am 12.8 9.8 -8.9 21 7.4 CALM 0 2 0 1 1017.8 1017.5 0.0
16/03:00am 13.3 9.3 -7.9 22 7.4 ENE 6 6 3 3 1018.0 1017.6 0.0
16/02:30am 13.7 9.5 -8.2 21 7.7 ENE 7 9 4 5 1018.3 1017.9 0.0
16/02:00am 15.1 11.0 -8.3 19 8.3 ESE 6 7 3 4 1018.6 1018.2 0.0
16/01:30am 16.3 12.0 -8.8 17 9.0 ESE 7 9 4 5 1018.8 1018.4 0.0
16/01:00am 17.0 12.3 -9.0 16 9.3 ENE 9 11 5 6 1019.0 1018.6 0.0
16/12:30am 16.7 12.1 -8.4 17 9.1 E 9 9 5 5 1019.2 1018.8 0.0
16/12:00am 17.6 13.0 -8.5 16 9.5 E 9 11 5 6 1019.4 1019.0 0.0
 
Date/Time
EST
Temp
°C
App
Temp
°C
Dew
Point
°C
Rel
Hum
%
Delta-T
°C
Wind Press
QNH
hPa
Press
MSL
hPa
Rain since
9am
mm
Dir  Spd
km/h
Gust
km/h
Spd
kts
Gust
kts
15/11:30pm 17.8 13.2 -7.5 17 9.4 ESE 9 11 5 6 1019.5 1019.1 0.0
15/11:00pm 17.0 12.9 -6.8 19 8.9 ESE 7 9 4 5 1019.5 1019.1 0.0
15/10:30pm 18.1 13.7 -5.9 19 9.3 SE 9 11 5 6 1019.6 1019.2 0.0
15/10:00pm 18.7 14.2 -6.8 17 9.7 SE 9 9 5 5 1019.9 1019.5 0.0
15/09:30pm 19.4 14.9 -7.0 16 10.1 ESE 9 9 5 5 1020.0 1019.6 0.0
15/09:00pm 19.7 15.8 -4.5 19 9.8 SE 7 9 4 5 1020.1 1019.7 0.0
15/08:30pm 20.9 17.1 -3.6 19 10.2 SE 7 9 4 5 1020.0 1019.6 0.0
15/08:00pm 21.2 18.5 -6.4 15 10.9 CALM 0 0 0 0 1019.9 1019.5 0.0
15/07:30pm 23.5 20.8 -5.5 14 11.9 CALM 0 0 0 0 1019.7 1019.3 0.0
15/07:00pm 24.7 21.7 -8.9 10 13.1 CALM 0 0 0 0 1019.4 1019.0 0.0
15/06:30pm 27.1 23.0 -8.5 9 14.4 NNE 6 7 3 4 1019.2 1018.8 0.0
15/06:00pm 29.0 24.4 -8.5 8 15.4 N 9 13 5 7 1019.2 1018.8 0.0
15/05:30pm 29.7 25.7 -8.0 8 15.7 NNE 6 7 3 4 1019.1 1018.7 0.0
15/05:00pm 30.4 26.1 -9.2 7 16.2 NNW 7 11 4 6 1019.0 1018.6 0.0
15/04:30pm 30.3 26.0 -9.3 7 16.2 ENE 7 11 4 6 1018.9 1018.5 0.0
15/04:00pm 30.4 24.6 -9.2 7 16.2 NNE 15 24 8 13 1019.0 1018.6 0.0
15/03:30pm 30.4 24.6 -9.2 7 16.3 N 15 20 8 11 1019.0 1018.6 0.0
15/03:00pm 30.2 25.6 -7.7 8 15.9 NNE 9 17 5 9 1019.1 1018.7 0.0
15/02:30pm 29.6 25.0 -8.1 8 15.7 NE 9 22 5 12 1019.4 1019.0 0.0
15/02:00pm 29.4 23.3 -8.2 8 15.5 ENE 17 26 9 14 1019.8 1019.4 0.0
15/01:30pm 29.3 23.3 -6.8 9 15.3 NE 17 26 9 14 1020.3 1019.9 0.0
15/01:00pm 28.7 22.6 -7.3 9 15.0 NE 17 24 9 13 1020.9 1020.5 0.0
15/12:30pm 28.3 21.8 -7.6 9 14.9 NE 19 26 10 14 1021.6 1021.2 0.0
15/12:00pm 28.0 22.0 -6.4 10 14.5 NE 17 28 9 15 1022.4 1022.0 0.0
15/11:30am 27.8 21.6 -5.3 11 14.2 NE 19 30 10 16 1022.9 1022.6 0.0
15/11:00am 27.1 21.2 -5.9 11 13.9 ENE 17 24 9 13 1023.4 1023.1 0.0
15/10:30am 26.5 21.0 -5.2 12 13.5 ENE 15 20 8 11 1023.8 1023.5 0.0
15/10:00am 25.7 20.5 -5.8 12 13.1 ENE 13 19 7 10 1024.3 1024.0 0.0
15/09:30am 24.4 19.2 -5.8 13 12.5 E 13 19 7 10 1024.1 1023.8 0.0
15/09:00am 22.8 17.6 -6.1 14 11.6 ENE 13 17 7 9 1024.1 1023.8 0.0
15/08:30am 20.8 15.6 -5.9 16 10.6 ENE 13 19 7 10 1023.9 1023.6 0.0
15/08:00am 17.6 13.7 -4.3 22 8.7 E 7 11 4 6 1023.6 1023.3 0.0
15/07:30am 14.8 10.9 -5.0 25 7.5 ESE 7 9 4 5 1023.3 1023.0 0.0
15/07:00am 13.2 9.2 -5.4 27 6.9 ESE 7 9 4 5 1022.9 1022.6 0.0
15/06:30am 11.6 7.7 -6.3 28 6.4 SE 6 7 3 4 1022.7 1022.4 0.0
15/06:00am 13.5 9.2 -5.1 27 6.9 SE 9 11 5 6 1022.4 1022.0 0.0
15/05:30am 12.8 8.4 -5.7 27 6.8 ESE 9 11 5 6 1022.0 1021.6 0.0
15/05:00am 14.3 10.0 -4.9 26 7.2 SE 9 13 5 7 1021.9 1021.5 0.0
15/04:30am 14.9 10.2 -4.9 25 7.6 SE 11 13 6 7 1021.8 1021.4 0.0
15/04:00am 15.6 10.9 -5.4 23 8.0 SE 11 13 6 7 1021.8 1021.4 0.0
15/03:30am 16.6 11.4 -5.8 21 8.5 SE 13 15 7 8 1021.8 1021.4 0.0
15/03:00am 16.7 11.5 -5.7 21 8.5 SE 13 15 7 8 1021.9 1021.5 0.0
15/02:30am 16.7 11.9 -5.7 21 8.6 ESE 11 13 6 7 1022.1 1021.7 0.0
15/02:00am 17.3 12.2 -5.2 21 8.7 SE 13 13 7 7 1022.3 1021.9 0.0
15/01:30am 17.6 12.9 -5.0 21 8.9 SE 11 13 6 7 1022.5 1022.2 0.0
15/01:00am 18.1 13.3 -5.9 19 9.2 SE 11 13 6 7 1022.5 1022.2 0.0
15/12:30am 18.6 13.9 -4.8 20 9.3 ESE 11 13 6 7 1022.3 1021.9 0.0
15/12:00am 18.4 13.6 -5.6 19 9.3 ESE 11 11 6 6 1022.4 1022.0 0.0
 
Date/Time
EST
Temp
°C
App
Temp
°C
Dew
Point
°C
Rel
Hum
%
Delta-T
°C
Wind Press
QNH
hPa
Press
MSL
hPa
Rain since
9am
mm
Dir  Spd
km/h
Gust
km/h
Spd
kts
Gust
kts
14/11:30pm 19.2 14.5 -5.0 19 9.6 ESE 11 13 6 7 1022.5 1022.2 0.0
14/11:00pm 18.8 14.4 -6.0 18 9.6 ESE 9 11 5 6 1022.6 1022.3 0.0
14/10:30pm 20.1 15.3 -6.5 16 10.4 SE 11 11 6 6 1022.8 1022.5 0.0
14/10:00pm 21.1 15.9 -6.5 15 10.8 SE 13 15 7 8 1023.0 1022.7 0.0
14/09:30pm 21.8 16.6 -5.9 15 11.1 SSE 13 15 7 8 1023.1 1022.8 0.0
14/09:00pm 22.4 17.2 -6.4 14 11.5 SSE 13 15 7 8 1023.1 1022.8 0.0
14/08:30pm 22.3 17.1 -6.5 14 11.5 SSE 13 15 7 8 1022.9 1022.6 0.0
14/08:00pm 23.2 18.3 -6.7 13 11.9 SSE 11 13 6 7 1022.7 1022.4 0.0
14/07:30pm 24.2 19.4 -5.9 13 12.4 SSE 11 13 6 7 1022.4 1022.0 0.0
14/07:00pm 25.0 20.2 -6.3 12 12.8 SE 11 13 6 7 1022.2 1021.8 0.0
14/06:30pm 26.2 21.5 -5.4 12 13.4 SE 11 13 6 7 1021.9 1021.5 0.0
14/06:00pm 27.5 22.7 -5.6 11 14.1 SE 11 19 6 10 1021.9 1021.5 0.0
14/05:30pm 28.2 23.1 -5.0 11 14.4 SE 13 17 7 9 1021.6 1021.2 0.0
14/05:00pm 28.3 24.2 -6.2 10 14.6 SE 7 11 4 6 1021.6 1021.2 0.0
14/04:30pm 28.9 24.1 -5.7 10 14.9 E 11 17 6 9 1021.5 1021.1 0.0
14/04:00pm 28.5 24.1 -6.0 10 14.7 E 9 20 5 11 1021.6 1021.2 0.0
14/03:30pm 28.5 22.9 -6.0 10 14.7 SSE 15 24 8 13 1021.6 1021.2 0.0
14/03:00pm 28.8 23.6 -5.8 10 14.8 ESE 13 24 7 13 1021.9 1021.5 0.0
14/02:30pm 27.7 23.0 -5.4 11 14.2 SE 11 20 6 11 1022.3 1021.9 0.0
14/02:00pm 27.6 21.3 -5.5 11 14.1 SE 19 28 10 15 1022.7 1022.4 0.0
14/01:30pm 27.4 21.9 -5.6 11 14.1 SE 15 24 8 13 1023.0 1022.7 0.0
14/01:00pm 27.1 21.7 -4.7 12 13.7 SE 15 22 8 12 1023.4 1023.1 0.0
14/12:30pm 26.8 22.6 -3.9 13 13.4 E 9 24 5 13 1023.8 1023.5 0.0
14/12:00pm 25.7 19.9 -4.7 13 12.9 ESE 17 22 9 12 1024.3 1024.0 0.0
14/11:30am 25.3 19.6 -4.1 14 12.6 E 17 24 9 13 1024.7 1024.4 0.0
14/11:00am 25.3 19.3 -3.2 15 12.4 ESE 19 24 10 13 1025.1 1024.8 0.0
14/10:30am 24.6 18.4 -2.9 16 12.0 ESE 20 26 11 14 1025.3 1025.0 0.0
14/10:00am 23.1 16.1 -3.3 17 11.2 SE 24 30 13 16 1025.5 1025.2 0.0
14/09:30am 22.8 16.0 -2.0 19 10.9 ESE 24 32 13 17 1025.7 1025.4 0.0
14/09:00am 21.6 15.2 -1.6 21 10.1 ESE 22 33 12 18 1025.7 1025.4 0.0
14/08:30am 20.4 14.5 -0.8 24 9.3 ESE 20 30 11 16 1025.7 1025.4 0.0
14/08:00am 18.3 13.0 -0.5 28 8.1 SE 17 22 9 12 1025.4 1025.1 0.0
14/07:30am 16.7 12.2 -0.5 31 7.4 SE 13 20 7 11 1025.1 1024.8 0.0
14/07:00am 15.3 11.1 -0.9 33 6.7 SE 11 13 6 7 1024.6 1024.3 0.0
14/06:30am 14.7 10.9 -1.0 34 6.5 SE 9 11 5 6 1024.2 1023.9 0.0
14/06:00am 15.4 11.2 -0.8 33 6.8 SE 11 13 6 7 1024.0 1023.7 0.0
14/05:30am 15.5 11.7 -0.7 33 6.8 SE 9 11 5 6 1023.8 1023.5 0.0
14/05:00am 15.7 11.8 -1.4 31 7.1 SE 9 9 5 5 1023.4 1023.1 0.0
14/04:30am 16.3 12.0 -1.3 30 7.4 SE 11 13 6 7 1023.1 1022.8 0.0
14/04:00am 16.5 12.3 -1.1 30 7.4 SE 11 15 6 8 1022.9 1022.6 0.0
14/03:30am 16.4 12.1 -1.7 29 7.5 SE 11 13 6 7 1023.0 1022.7 0.0
14/03:00am 15.9 11.5 -2.1 29 7.3 SE 11 13 6 7 1023.0 1022.7 0.0
14/02:30am 16.9 12.1 -2.2 27 7.9 SE 13 15 7 8 1023.1 1022.8 0.0
14/02:00am 17.1 12.7 -2.5 26 8.0 SE 11 13 6 7 1023.3 1023.0 0.0
14/01:30am 17.7 12.8 -3.1 24 8.5 SSE 13 13 7 7 1023.4 1023.1 0.0
14/01:00am 17.7 13.1 -3.7 23 8.6 SSE 11 13 6 7 1023.5 1023.2 0.0
14/12:30am 18.5 14.0 -3.0 23 8.9 SE 11 15 6 8 1023.7 1023.4 0.0
14/12:00am 18.7 14.5 -4.0 21 9.1 SSE 9 11 5 6 1023.8 1023.5 0.0
 
Date/Time
EST
Temp
°C
App
Temp
°C
Dew
Point
°C
Rel
Hum
%
Delta-T
°C
Wind Press
QNH
hPa
Press
MSL
hPa
Rain since
9am
mm
Dir  Spd
km/h
Gust
km/h
Spd
kts
Gust
kts
13/11:30pm 18.9 14.2 -5.2 19 9.5 S 11 15 6 8 1023.9 1023.6 0.0
13/11:00pm 19.5 14.7 -6.2 17 10.0 S 11 13 6 7 1024.0 1023.7 0.0
13/10:30pm 19.4 14.6 -6.2 17 10.0 S 11 13 6 7 1023.9 1023.6 0.0
13/10:00pm 20.4 16.0 -6.2 16 10.4 S 9 11 5 6 1023.8 1023.5 0.0
13/09:30pm 21.2 16.0 -6.4 15 10.9 SSW 13 15 7 8 1023.8 1023.5 0.0
13/09:00pm 21.4 16.5 -7.2 14 11.1 SSW 11 13 6 7 1023.6 1023.3 0.0
13/08:30pm 22.1 16.9 -6.6 14 11.4 SSW 13 13 7 7 1023.3 1023.0 0.0
13/08:00pm 22.6 17.7 -7.2 13 11.7 SSW 11 13 6 7 1023.0 1022.7 0.0
13/07:30pm 23.7 19.1 -7.4 12 12.4 SSW 9 11 5 6 1022.6 1022.3 0.0
13/07:00pm 25.2 20.3 -7.3 11 13.1 SW 11 13 6 7 1022.3 1021.9 0.0
13/06:30pm 26.6 21.3 -7.5 10 13.9 SSW 13 17 7 9 1022.0 1021.6 0.0
13/06:00pm 28.1 22.8 -7.7 9 14.7 SSW 13 17 7 9 1021.6 1021.2 0.0
13/05:30pm 28.9 22.7 -8.6 8 15.4 SSW 17 20 9 11 1021.6 1021.2 0.0
13/05:00pm 29.5 23.4 -8.2 8 15.6 SSW 17 24 9 13 1021.4 1021.0 0.0
13/04:30pm 30.1 23.4 -7.7 8 15.9 SSW 20 30 11 16 1021.3 1020.9 0.0
13/04:00pm 30.1 22.3 -7.7 8 15.8 SSW 26 35 14 19 1021.2 1020.8 0.0
13/03:30pm 30.7 24.9 -9.0 7 16.4 S 15 30 8 16 1021.3 1020.9 0.0
13/03:00pm 30.2 24.0 -9.4 7 16.1 SW 17 28 9 15 1021.5 1021.1 0.0
13/02:30pm 30.2 23.5 -7.7 8 15.9 SSW 20 32 11 17 1021.7 1021.3 0.0
13/02:00pm 30.1 24.4 -7.7 8 15.8 SSW 15 26 8 14 1022.1 1021.7 0.0
13/01:30pm 29.4 25.3 -8.2 8 15.6 SW 6 17 3 9 1022.7 1022.4 0.0
13/01:00pm 28.8 23.4 -8.7 8 15.2 SW 13 22 7 12 1023.2 1022.9 0.0
13/12:30pm 28.6 23.9 -8.8 8 15.2 SE 9 17 5 9 1023.5 1023.2 0.0
13/12:00pm 27.3 21.7 -11.5 7 14.8 S 13 20 7 11 1023.9 1023.6 0.0
13/11:30am 27.9 22.3 -11.0 7 15.1 S 13 20 7 11 1024.3 1024.0 0.0
13/11:00am 26.4 21.2 -10.5 8 14.2 S 11 19 6 10 1024.8 1024.5 0.0

Other formats

Comma delimited format used in spreadsheet applications
http://www.bom.gov.au/fwo/IDQ60801/IDQ60801.95492.axf

JavaScript Object Notation format (JSON) in row-major order
http://www.bom.gov.au/fwo/IDQ60801/IDQ60801.95492.json

Data quality

Most of these data are generated automatically and are frequently updated. Quality checks on data are not normally performed. It is possible for incorrect values to appear. Refer to information at About Latest Weather Observations and please check the disclaimer before using these data.